sensor_id;sensor_type;location;lat;lon;timestamp;P1;durP1;ratioP1;P2;durP2;ratioP2
59571;SDS011;59406;45.602;11.904;2023-02-01T00:00:22;97.35;;;47.10;;
59571;SDS011;59406;45.602;11.904;2023-02-01T00:02:48;104.67;;;47.83;;
59571;SDS011;59406;45.602;11.904;2023-02-01T00:05:13;104.25;;;49.50;;
59571;SDS011;59406;45.602;11.904;2023-02-01T00:07:39;94.95;;;44.33;;
59571;SDS011;59406;45.602;11.904;2023-02-01T00:10:06;96.03;;;47.10;;
59571;SDS011;59406;45.602;11.904;2023-02-01T00:12:33;103.38;;;47.08;;
59571;SDS011;59406;45.602;11.904;2023-02-01T00:14:59;93.72;;;44.65;;
59571;SDS011;59406;45.602;11.904;2023-02-01T00:17:25;100.85;;;47.90;;
59571;SDS011;59406;45.602;11.904;2023-02-01T00:19:51;95.73;;;48.67;;
59571;SDS011;59406;45.602;11.904;2023-02-01T00:22:17;72.43;;;35.95;;
59571;SDS011;59406;45.602;11.904;2023-02-01T00:24:43;99.00;;;47.38;;
59571;SDS011;59406;45.602;11.904;2023-02-01T00:27:09;103.88;;;48.25;;
59571;SDS011;59406;45.602;11.904;2023-02-01T00:29:35;98.30;;;47.87;;
59571;SDS011;59406;45.602;11.904;2023-02-01T00:32:01;98.10;;;46.05;;
59571;SDS011;59406;45.602;11.904;2023-02-01T00:34:26;103.32;;;50.10;;
59571;SDS011;59406;45.602;11.904;2023-02-01T00:36:52;100.20;;;50.47;;
59571;SDS011;59406;45.602;11.904;2023-02-01T00:39:18;109.38;;;50.08;;
59571;SDS011;59406;45.602;11.904;2023-02-01T00:41:44;110.13;;;49.47;;
59571;SDS011;59406;45.602;11.904;2023-02-01T00:44:10;100.93;;;48.17;;
59571;SDS011;59406;45.602;11.904;2023-02-01T00:46:36;104.93;;;48.70;;
59571;SDS011;59406;45.602;11.904;2023-02-01T00:49:02;102.57;;;47.75;;
59571;SDS011;59406;45.602;11.904;2023-02-01T00:51:29;91.38;;;46.05;;
59571;SDS011;59406;45.602;11.904;2023-02-01T00:53:55;94.30;;;42.90;;
59571;SDS011;59406;45.602;11.904;2023-02-01T00:56:21;80.70;;;41.08;;
59571;SDS011;59406;45.602;11.904;2023-02-01T00:58:47;76.00;;;37.13;;
59571;SDS011;59406;45.602;11.904;2023-02-01T01:01:17;67.57;;;31.52;;
59571;SDS011;59406;45.602;11.904;2023-02-01T01:03:50;79.47;;;36.17;;
59571;SDS011;59406;45.602;11.904;2023-02-01T01:06:28;66.33;;;34.53;;
59571;SDS011;59406;45.602;11.904;2023-02-01T01:08:56;73.95;;;32.88;;
59571;SDS011;59406;45.602;11.904;2023-02-01T01:11:27;85.75;;;38.53;;
59571;SDS011;59406;45.602;11.904;2023-02-01T01:13:55;79.93;;;37.20;;
59571;SDS011;59406;45.602;11.904;2023-02-01T01:16:24;88.60;;;42.50;;
59571;SDS011;59406;45.602;11.904;2023-02-01T01:18:51;96.17;;;42.90;;
59571;SDS011;59406;45.602;11.904;2023-02-01T01:21:17;85.75;;;41.15;;
59571;SDS011;59406;45.602;11.904;2023-02-01T01:23:44;86.13;;;40.78;;
59571;SDS011;59406;45.602;11.904;2023-02-01T01:26:12;91.57;;;42.58;;
59571;SDS011;59406;45.602;11.904;2023-02-01T01:28:41;65.32;;;34.88;;
59571;SDS011;59406;45.602;11.904;2023-02-01T01:31:10;75.43;;;37.17;;
59571;SDS011;59406;45.602;11.904;2023-02-01T01:33:37;87.40;;;39.00;;
59571;SDS011;59406;45.602;11.904;2023-02-01T01:36:07;83.32;;;39.85;;
59571;SDS011;59406;45.602;11.904;2023-02-01T01:38:37;64.25;;;30.60;;
59571;SDS011;59406;45.602;11.904;2023-02-01T01:41:06;63.72;;;30.08;;
59571;SDS011;59406;45.602;11.904;2023-02-01T01:46:20;63.67;;;31.02;;
59571;SDS011;59406;45.602;11.904;2023-02-01T01:48:56;57.88;;;27.77;;
59571;SDS011;59406;45.602;11.904;2023-02-01T01:51:32;58.22;;;29.55;;
59571;SDS011;59406;45.602;11.904;2023-02-01T01:54:06;85.75;;;40.83;;
59571;SDS011;59406;45.602;11.904;2023-02-01T01:56:42;83.00;;;36.97;;
59571;SDS011;59406;45.602;11.904;2023-02-01T01:59:12;71.28;;;34.88;;
59571;SDS011;59406;45.602;11.904;2023-02-01T02:01:38;65.25;;;30.50;;
59571;SDS011;59406;45.602;11.904;2023-02-01T02:04:04;57.80;;;29.45;;
59571;SDS011;59406;45.602;11.904;2023-02-01T02:06:37;87.03;;;42.10;;
59571;SDS011;59406;45.602;11.904;2023-02-01T02:09:10;65.05;;;31.15;;
59571;SDS011;59406;45.602;11.904;2023-02-01T02:11:36;71.82;;;35.78;;
59571;SDS011;59406;45.602;11.904;2023-02-01T02:14:02;61.47;;;30.88;;
59571;SDS011;59406;45.602;11.904;2023-02-01T02:19:19;73.97;;;33.88;;
59571;SDS011;59406;45.602;11.904;2023-02-01T02:30:51;65.57;;;31.70;;
59571;SDS011;59406;45.602;11.904;2023-02-01T02:36:04;77.43;;;36.03;;
59571;SDS011;59406;45.602;11.904;2023-02-01T02:38:46;74.82;;;32.88;;
59571;SDS011;59406;45.602;11.904;2023-02-01T02:41:43;72.93;;;31.27;;
59571;SDS011;59406;45.602;11.904;2023-02-01T02:44:44;70.80;;;31.53;;
59571;SDS011;59406;45.602;11.904;2023-02-01T02:47:34;78.95;;;32.17;;
59571;SDS011;59406;45.602;11.904;2023-02-01T02:53:05;75.18;;;32.22;;
59571;SDS011;59406;45.602;11.904;2023-02-01T02:56:11;51.92;;;24.05;;
59571;SDS011;59406;45.602;11.904;2023-02-01T02:58:56;50.27;;;24.97;;
59571;SDS011;59406;45.602;11.904;2023-02-01T03:01:42;57.90;;;23.23;;
59571;SDS011;59406;45.602;11.904;2023-02-01T03:04:27;56.95;;;24.50;;
59571;SDS011;59406;45.602;11.904;2023-02-01T03:06:53;55.97;;;26.73;;
59571;SDS011;59406;45.602;11.904;2023-02-01T03:09:26;49.95;;;23.10;;
59571;SDS011;59406;45.602;11.904;2023-02-01T03:11:58;62.63;;;27.33;;
59571;SDS011;59406;45.602;11.904;2023-02-01T03:14:47;57.45;;;26.80;;
59571;SDS011;59406;45.602;11.904;2023-02-01T03:17:18;49.65;;;21.38;;
59571;SDS011;59406;45.602;11.904;2023-02-01T03:19:51;64.10;;;27.98;;
59571;SDS011;59406;45.602;11.904;2023-02-01T03:22:22;48.20;;;22.38;;
59571;SDS011;59406;45.602;11.904;2023-02-01T03:24:55;51.37;;;24.50;;
59571;SDS011;59406;45.602;11.904;2023-02-01T03:27:27;52.35;;;24.20;;
59571;SDS011;59406;45.602;11.904;2023-02-01T03:30:04;60.53;;;26.80;;
59571;SDS011;59406;45.602;11.904;2023-02-01T03:32:35;57.30;;;26.10;;
59571;SDS011;59406;45.602;11.904;2023-02-01T03:35:23;62.30;;;27.80;;
59571;SDS011;59406;45.602;11.904;2023-02-01T03:38:08;48.53;;;21.17;;
59571;SDS011;59406;45.602;11.904;2023-02-01T03:40:46;52.88;;;24.08;;
59571;SDS011;59406;45.602;11.904;2023-02-01T03:43:37;58.17;;;27.92;;
59571;SDS011;59406;45.602;11.904;2023-02-01T03:46:15;45.70;;;21.55;;
59571;SDS011;59406;45.602;11.904;2023-02-01T03:48:46;44.22;;;19.33;;
59571;SDS011;59406;45.602;11.904;2023-02-01T03:51:13;60.07;;;28.80;;
59571;SDS011;59406;45.602;11.904;2023-02-01T03:53:39;65.15;;;28.30;;
59571;SDS011;59406;45.602;11.904;2023-02-01T03:56:06;59.60;;;27.85;;
59571;SDS011;59406;45.602;11.904;2023-02-01T03:58:33;46.38;;;20.80;;
59571;SDS011;59406;45.602;11.904;2023-02-01T04:01:00;45.03;;;19.45;;
59571;SDS011;59406;45.602;11.904;2023-02-01T04:03:26;44.03;;;21.27;;
59571;SDS011;59406;45.602;11.904;2023-02-01T04:05:53;56.65;;;25.70;;
59571;SDS011;59406;45.602;11.904;2023-02-01T04:08:20;58.53;;;25.83;;
59571;SDS011;59406;45.602;11.904;2023-02-01T04:10:46;55.75;;;24.45;;
59571;SDS011;59406;45.602;11.904;2023-02-01T04:13:12;57.73;;;26.40;;
59571;SDS011;59406;45.602;11.904;2023-02-01T04:15:38;60.63;;;25.73;;
59571;SDS011;59406;45.602;11.904;2023-02-01T04:18:03;57.40;;;25.98;;
59571;SDS011;59406;45.602;11.904;2023-02-01T04:20:30;51.77;;;22.40;;
59571;SDS011;59406;45.602;11.904;2023-02-01T04:22:56;45.25;;;21.08;;
59571;SDS011;59406;45.602;11.904;2023-02-01T04:25:22;41.65;;;21.92;;
59571;SDS011;59406;45.602;11.904;2023-02-01T04:27:47;60.03;;;26.92;;
59571;SDS011;59406;45.602;11.904;2023-02-01T04:30:13;43.13;;;18.77;;
59571;SDS011;59406;45.602;11.904;2023-02-01T04:32:40;51.45;;;25.08;;
59571;SDS011;59406;45.602;11.904;2023-02-01T04:35:06;50.42;;;21.77;;
59571;SDS011;59406;45.602;11.904;2023-02-01T04:37:32;54.60;;;27.05;;
59571;SDS011;59406;45.602;11.904;2023-02-01T04:39:58;53.47;;;21.53;;
59571;SDS011;59406;45.602;11.904;2023-02-01T04:42:24;59.30;;;27.75;;
59571;SDS011;59406;45.602;11.904;2023-02-01T04:44:50;41.93;;;18.83;;
59571;SDS011;59406;45.602;11.904;2023-02-01T04:47:16;42.78;;;20.25;;
59571;SDS011;59406;45.602;11.904;2023-02-01T04:49:42;43.65;;;20.58;;
59571;SDS011;59406;45.602;11.904;2023-02-01T04:52:08;66.88;;;28.88;;
59571;SDS011;59406;45.602;11.904;2023-02-01T04:54:34;56.57;;;25.40;;
59571;SDS011;59406;45.602;11.904;2023-02-01T04:57:00;46.15;;;22.23;;
59571;SDS011;59406;45.602;11.904;2023-02-01T04:59:26;44.40;;;21.65;;
59571;SDS011;59406;45.602;11.904;2023-02-01T05:01:52;66.05;;;29.17;;
59571;SDS011;59406;45.602;11.904;2023-02-01T05:04:18;56.70;;;26.00;;
59571;SDS011;59406;45.602;11.904;2023-02-01T05:06:44;63.50;;;30.55;;
59571;SDS011;59406;45.602;11.904;2023-02-01T05:09:10;65.15;;;28.20;;
59571;SDS011;59406;45.602;11.904;2023-02-01T05:11:36;55.65;;;25.77;;
59571;SDS011;59406;45.602;11.904;2023-02-01T05:14:21;58.63;;;25.83;;
59571;SDS011;59406;45.602;11.904;2023-02-01T05:16:47;66.03;;;29.30;;
59571;SDS011;59406;45.602;11.904;2023-02-01T05:19:12;56.95;;;25.50;;
59571;SDS011;59406;45.602;11.904;2023-02-01T05:21:39;47.10;;;21.92;;
59571;SDS011;59406;45.602;11.904;2023-02-01T05:24:04;52.03;;;24.97;;
59571;SDS011;59406;45.602;11.904;2023-02-01T05:26:37;66.78;;;27.73;;
59571;SDS011;59406;45.602;11.904;2023-02-01T05:29:08;57.03;;;27.73;;
59571;SDS011;59406;45.602;11.904;2023-02-01T05:31:35;60.35;;;28.20;;
59571;SDS011;59406;45.602;11.904;2023-02-01T05:34:01;43.93;;;20.60;;
59571;SDS011;59406;45.602;11.904;2023-02-01T05:36:27;53.70;;;25.13;;
59571;SDS011;59406;45.602;11.904;2023-02-01T05:38:53;54.65;;;25.33;;
59571;SDS011;59406;45.602;11.904;2023-02-01T05:41:19;54.40;;;24.80;;
59571;SDS011;59406;45.602;11.904;2023-02-01T05:43:45;68.28;;;29.33;;
59571;SDS011;59406;45.602;11.904;2023-02-01T05:46:10;59.83;;;27.97;;
59571;SDS011;59406;45.602;11.904;2023-02-01T05:48:38;53.78;;;26.00;;
59571;SDS011;59406;45.602;11.904;2023-02-01T05:51:07;62.15;;;27.00;;
59571;SDS011;59406;45.602;11.904;2023-02-01T05:53:34;58.42;;;27.30;;
59571;SDS011;59406;45.602;11.904;2023-02-01T05:55:59;58.80;;;28.63;;
59571;SDS011;59406;45.602;11.904;2023-02-01T05:58:26;56.47;;;25.63;;
59571;SDS011;59406;45.602;11.904;2023-02-01T06:00:51;59.35;;;27.48;;
59571;SDS011;59406;45.602;11.904;2023-02-01T06:03:17;52.33;;;24.30;;
59571;SDS011;59406;45.602;11.904;2023-02-01T06:05:44;51.58;;;24.83;;
59571;SDS011;59406;45.602;11.904;2023-02-01T06:08:10;54.83;;;25.47;;
59571;SDS011;59406;45.602;11.904;2023-02-01T06:10:36;47.15;;;23.63;;
59571;SDS011;59406;45.602;11.904;2023-02-01T06:13:02;53.72;;;24.55;;
59571;SDS011;59406;45.602;11.904;2023-02-01T06:15:28;46.83;;;23.05;;
59571;SDS011;59406;45.602;11.904;2023-02-01T06:17:56;41.80;;;20.40;;
59571;SDS011;59406;45.602;11.904;2023-02-01T06:20:22;48.97;;;24.98;;
59571;SDS011;59406;45.602;11.904;2023-02-01T06:22:47;48.70;;;23.08;;
59571;SDS011;59406;45.602;11.904;2023-02-01T06:25:13;45.50;;;22.63;;
59571;SDS011;59406;45.602;11.904;2023-02-01T06:27:39;47.88;;;22.05;;
59571;SDS011;59406;45.602;11.904;2023-02-01T06:30:05;47.50;;;22.67;;
59571;SDS011;59406;45.602;11.904;2023-02-01T06:32:32;46.78;;;22.30;;
59571;SDS011;59406;45.602;11.904;2023-02-01T06:34:58;45.63;;;20.88;;
59571;SDS011;59406;45.602;11.904;2023-02-01T06:37:25;51.03;;;23.10;;
59571;SDS011;59406;45.602;11.904;2023-02-01T06:39:54;46.90;;;23.20;;
59571;SDS011;59406;45.602;11.904;2023-02-01T06:42:20;45.22;;;21.40;;
59571;SDS011;59406;45.602;11.904;2023-02-01T06:44:46;40.30;;;18.17;;
59571;SDS011;59406;45.602;11.904;2023-02-01T06:47:11;48.17;;;21.43;;
59571;SDS011;59406;45.602;11.904;2023-02-01T06:49:37;36.28;;;19.35;;
59571;SDS011;59406;45.602;11.904;2023-02-01T06:52:03;46.97;;;22.77;;
59571;SDS011;59406;45.602;11.904;2023-02-01T06:54:29;36.97;;;18.17;;
59571;SDS011;59406;45.602;11.904;2023-02-01T06:56:58;44.40;;;21.98;;
59571;SDS011;59406;45.602;11.904;2023-02-01T06:59:24;38.83;;;18.73;;
59571;SDS011;59406;45.602;11.904;2023-02-01T07:01:50;41.23;;;20.63;;
59571;SDS011;59406;45.602;11.904;2023-02-01T07:04:15;38.70;;;18.83;;
59571;SDS011;59406;45.602;11.904;2023-02-01T07:06:41;35.87;;;18.57;;
59571;SDS011;59406;45.602;11.904;2023-02-01T07:09:07;36.97;;;18.13;;
59571;SDS011;59406;45.602;11.904;2023-02-01T07:11:33;47.30;;;22.02;;
59571;SDS011;59406;45.602;11.904;2023-02-01T07:13:59;61.40;;;28.23;;
59571;SDS011;59406;45.602;11.904;2023-02-01T07:16:25;49.42;;;24.25;;
59571;SDS011;59406;45.602;11.904;2023-02-01T07:18:52;41.80;;;21.65;;
59571;SDS011;59406;45.602;11.904;2023-02-01T07:21:18;45.30;;;22.90;;
59571;SDS011;59406;45.602;11.904;2023-02-01T07:23:45;41.80;;;22.40;;
59571;SDS011;59406;45.602;11.904;2023-02-01T07:26:12;40.90;;;20.60;;
59571;SDS011;59406;45.602;11.904;2023-02-01T07:28:39;45.65;;;21.08;;
59571;SDS011;59406;45.602;11.904;2023-02-01T07:31:06;41.88;;;19.70;;
59571;SDS011;59406;45.602;11.904;2023-02-01T07:33:40;41.97;;;19.35;;
59571;SDS011;59406;45.602;11.904;2023-02-01T07:36:06;45.78;;;19.05;;
59571;SDS011;59406;45.602;11.904;2023-02-01T07:38:37;43.67;;;19.23;;
59571;SDS011;59406;45.602;11.904;2023-02-01T07:41:03;42.97;;;20.08;;
59571;SDS011;59406;45.602;11.904;2023-02-01T07:43:33;40.00;;;19.73;;
59571;SDS011;59406;45.602;11.904;2023-02-01T07:45:59;44.20;;;21.27;;
59571;SDS011;59406;45.602;11.904;2023-02-01T07:48:26;42.83;;;21.83;;
59571;SDS011;59406;45.602;11.904;2023-02-01T07:51:05;46.10;;;22.55;;
59571;SDS011;59406;45.602;11.904;2023-02-01T07:53:36;55.53;;;25.60;;
59571;SDS011;59406;45.602;11.904;2023-02-01T07:56:02;44.88;;;21.65;;
59571;SDS011;59406;45.602;11.904;2023-02-01T07:58:29;46.88;;;24.23;;
59571;SDS011;59406;45.602;11.904;2023-02-01T08:00:55;39.00;;;20.27;;
59571;SDS011;59406;45.602;11.904;2023-02-01T08:03:40;36.22;;;20.42;;
59571;SDS011;59406;45.602;11.904;2023-02-01T08:06:06;43.75;;;23.35;;
59571;SDS011;59406;45.602;11.904;2023-02-01T08:08:32;39.75;;;20.40;;
59571;SDS011;59406;45.602;11.904;2023-02-01T08:10:58;38.67;;;19.10;;
59571;SDS011;59406;45.602;11.904;2023-02-01T08:13:25;36.85;;;19.23;;
59571;SDS011;59406;45.602;11.904;2023-02-01T08:15:50;44.30;;;21.70;;
59571;SDS011;59406;45.602;11.904;2023-02-01T08:18:16;62.97;;;25.87;;
59571;SDS011;59406;45.602;11.904;2023-02-01T08:20:43;45.97;;;21.17;;
59571;SDS011;59406;45.602;11.904;2023-02-01T08:23:11;58.72;;;30.25;;
59571;SDS011;59406;45.602;11.904;2023-02-01T08:25:37;52.70;;;27.27;;
59571;SDS011;59406;45.602;11.904;2023-02-01T08:28:04;44.03;;;23.42;;
59571;SDS011;59406;45.602;11.904;2023-02-01T08:30:31;39.13;;;22.20;;
59571;SDS011;59406;45.602;11.904;2023-02-01T08:32:57;33.60;;;18.02;;
59571;SDS011;59406;45.602;11.904;2023-02-01T08:35:23;39.60;;;18.95;;
59571;SDS011;59406;45.602;11.904;2023-02-01T08:37:49;40.78;;;20.30;;
59571;SDS011;59406;45.602;11.904;2023-02-01T08:40:15;39.87;;;20.40;;
59571;SDS011;59406;45.602;11.904;2023-02-01T08:42:41;40.15;;;19.50;;
59571;SDS011;59406;45.602;11.904;2023-02-01T08:45:17;38.63;;;18.25;;
59571;SDS011;59406;45.602;11.904;2023-02-01T08:47:45;30.05;;;15.18;;
59571;SDS011;59406;45.602;11.904;2023-02-01T08:50:12;34.35;;;16.58;;
59571;SDS011;59406;45.602;11.904;2023-02-01T08:52:39;34.93;;;18.00;;
59571;SDS011;59406;45.602;11.904;2023-02-01T08:55:05;32.35;;;16.90;;
59571;SDS011;59406;45.602;11.904;2023-02-01T08:57:32;37.47;;;18.25;;
59571;SDS011;59406;45.602;11.904;2023-02-01T08:59:59;32.88;;;17.55;;
59571;SDS011;59406;45.602;11.904;2023-02-01T09:02:25;35.20;;;17.03;;
59571;SDS011;59406;45.602;11.904;2023-02-01T09:04:51;38.97;;;18.55;;
59571;SDS011;59406;45.602;11.904;2023-02-01T09:07:17;32.47;;;17.70;;
59571;SDS011;59406;45.602;11.904;2023-02-01T09:09:43;31.47;;;16.67;;
59571;SDS011;59406;45.602;11.904;2023-02-01T09:12:10;32.47;;;17.13;;
59571;SDS011;59406;45.602;11.904;2023-02-01T09:14:36;38.05;;;18.42;;
59571;SDS011;59406;45.602;11.904;2023-02-01T09:17:02;30.95;;;17.13;;
59571;SDS011;59406;45.602;11.904;2023-02-01T09:19:30;35.17;;;18.58;;
59571;SDS011;59406;45.602;11.904;2023-02-01T09:21:56;35.40;;;18.80;;
59571;SDS011;59406;45.602;11.904;2023-02-01T09:24:22;35.63;;;19.20;;
59571;SDS011;59406;45.602;11.904;2023-02-01T09:26:48;32.72;;;19.15;;
59571;SDS011;59406;45.602;11.904;2023-02-01T09:29:14;33.50;;;18.50;;
59571;SDS011;59406;45.602;11.904;2023-02-01T09:31:40;36.47;;;18.85;;
59571;SDS011;59406;45.602;11.904;2023-02-01T09:35:05;38.37;;;22.47;;
59571;SDS011;59406;45.602;11.904;2023-02-01T09:37:31;39.08;;;22.30;;
59571;SDS011;59406;45.602;11.904;2023-02-01T09:39:58;41.50;;;22.70;;
59571;SDS011;59406;45.602;11.904;2023-02-01T09:42:40;45.17;;;25.98;;
59571;SDS011;59406;45.602;11.904;2023-02-01T09:48:01;44.35;;;23.92;;
59571;SDS011;59406;45.602;11.904;2023-02-01T09:50:36;43.92;;;24.58;;
59571;SDS011;59406;45.602;11.904;2023-02-01T09:55:39;44.78;;;25.45;;
59571;SDS011;59406;45.602;11.904;2023-02-01T10:00:57;43.88;;;24.42;;
59571;SDS011;59406;45.602;11.904;2023-02-01T10:03:26;48.92;;;26.75;;
59571;SDS011;59406;45.602;11.904;2023-02-01T10:06:05;50.13;;;27.55;;
59571;SDS011;59406;45.602;11.904;2023-02-01T10:11:20;51.67;;;27.80;;
59571;SDS011;59406;45.602;11.904;2023-02-01T10:14:06;52.10;;;28.10;;
59571;SDS011;59406;45.602;11.904;2023-02-01T10:16:49;46.60;;;27.58;;
59571;SDS011;59406;45.602;11.904;2023-02-01T10:22:07;49.83;;;27.83;;
59571;SDS011;59406;45.602;11.904;2023-02-01T10:24:42;49.27;;;27.37;;
59571;SDS011;59406;45.602;11.904;2023-02-01T10:27:38;49.67;;;27.88;;
59571;SDS011;59406;45.602;11.904;2023-02-01T10:30:20;50.80;;;29.27;;
59571;SDS011;59406;45.602;11.904;2023-02-01T10:32:55;49.58;;;27.88;;
59571;SDS011;59406;45.602;11.904;2023-02-01T10:35:30;50.88;;;28.50;;
59571;SDS011;59406;45.602;11.904;2023-02-01T10:38:01;48.53;;;28.17;;
59571;SDS011;59406;45.602;11.904;2023-02-01T10:40:30;54.03;;;29.02;;
59571;SDS011;59406;45.602;11.904;2023-02-01T10:42:58;51.08;;;29.05;;
59571;SDS011;59406;45.602;11.904;2023-02-01T10:45:27;49.45;;;28.42;;
59571;SDS011;59406;45.602;11.904;2023-02-01T10:47:55;47.90;;;27.17;;
59571;SDS011;59406;45.602;11.904;2023-02-01T10:55:39;44.50;;;26.98;;
59571;SDS011;59406;45.602;11.904;2023-02-01T10:58:19;52.50;;;29.52;;
59571;SDS011;59406;45.602;11.904;2023-02-01T11:00:54;49.85;;;28.38;;
59571;SDS011;59406;45.602;11.904;2023-02-01T11:05:57;46.17;;;25.70;;
59571;SDS011;59406;45.602;11.904;2023-02-01T11:08:24;48.58;;;27.60;;
59571;SDS011;59406;45.602;11.904;2023-02-01T11:10:57;45.97;;;27.13;;
59571;SDS011;59406;45.602;11.904;2023-02-01T11:13:31;54.33;;;29.27;;
59571;SDS011;59406;45.602;11.904;2023-02-01T11:16:02;48.63;;;27.80;;
59571;SDS011;59406;45.602;11.904;2023-02-01T11:18:31;48.80;;;27.75;;
59571;SDS011;59406;45.602;11.904;2023-02-01T11:21:01;49.20;;;30.23;;
59571;SDS011;59406;45.602;11.904;2023-02-01T11:23:28;46.80;;;27.42;;
59571;SDS011;59406;45.602;11.904;2023-02-01T11:26:13;44.20;;;26.50;;
59571;SDS011;59406;45.602;11.904;2023-02-01T11:29:10;55.13;;;29.60;;
59571;SDS011;59406;45.602;11.904;2023-02-01T11:31:36;47.97;;;26.77;;
59571;SDS011;59406;45.602;11.904;2023-02-01T11:36:52;46.38;;;26.65;;
59571;SDS011;59406;45.602;11.904;2023-02-01T11:39:24;48.95;;;29.15;;
59571;SDS011;59406;45.602;11.904;2023-02-01T11:44:37;50.65;;;29.02;;
59571;SDS011;59406;45.602;11.904;2023-02-01T11:49:50;47.20;;;26.23;;
59571;SDS011;59406;45.602;11.904;2023-02-01T11:58:10;50.80;;;29.55;;
59571;SDS011;59406;45.602;11.904;2023-02-01T12:04:05;59.78;;;33.20;;
59571;SDS011;59406;45.602;11.904;2023-02-01T12:06:54;56.67;;;32.28;;
59571;SDS011;59406;45.602;11.904;2023-02-01T12:12:36;55.17;;;31.02;;
59571;SDS011;59406;45.602;11.904;2023-02-01T12:15:15;55.28;;;32.03;;
59571;SDS011;59406;45.602;11.904;2023-02-01T12:32:47;61.25;;;35.80;;
59571;SDS011;59406;45.602;11.904;2023-02-01T12:38:20;55.97;;;33.10;;
59571;SDS011;59406;45.602;11.904;2023-02-01T12:41:06;52.55;;;31.25;;
59571;SDS011;59406;45.602;11.904;2023-02-01T12:43:58;55.15;;;34.60;;
59571;SDS011;59406;45.602;11.904;2023-02-01T12:52:10;55.50;;;32.83;;
59571;SDS011;59406;45.602;11.904;2023-02-01T12:54:42;55.90;;;34.00;;
59571;SDS011;59406;45.602;11.904;2023-02-01T12:57:15;59.70;;;34.92;;
59571;SDS011;59406;45.602;11.904;2023-02-01T12:59:54;54.47;;;32.17;;
59571;SDS011;59406;45.602;11.904;2023-02-01T13:02:27;61.72;;;35.42;;
59571;SDS011;59406;45.602;11.904;2023-02-01T13:05:22;58.97;;;35.37;;
59571;SDS011;59406;45.602;11.904;2023-02-01T13:08:10;55.28;;;33.15;;
59571;SDS011;59406;45.602;11.904;2023-02-01T13:10:49;54.85;;;31.67;;
59571;SDS011;59406;45.602;11.904;2023-02-01T13:13:48;59.53;;;34.60;;
59571;SDS011;59406;45.602;11.904;2023-02-01T13:19:40;50.87;;;31.90;;
59571;SDS011;59406;45.602;11.904;2023-02-01T13:22:09;51.97;;;32.58;;
59571;SDS011;59406;45.602;11.904;2023-02-01T13:24:47;47.03;;;28.83;;
59571;SDS011;59406;45.602;11.904;2023-02-01T13:27:17;63.15;;;34.42;;
59571;SDS011;59406;45.602;11.904;2023-02-01T13:29:51;58.08;;;36.38;;
59571;SDS011;59406;45.602;11.904;2023-02-01T13:35:23;51.70;;;31.92;;
59571;SDS011;59406;45.602;11.904;2023-02-01T13:38:03;55.45;;;32.05;;
59571;SDS011;59406;45.602;11.904;2023-02-01T13:44:01;57.42;;;34.30;;
59571;SDS011;59406;45.602;11.904;2023-02-01T13:46:41;53.87;;;31.77;;
59571;SDS011;59406;45.602;11.904;2023-02-01T13:49:17;53.00;;;31.33;;
59571;SDS011;59406;45.602;11.904;2023-02-01T13:51:47;47.85;;;29.52;;
59571;SDS011;59406;45.602;11.904;2023-02-01T13:54:32;46.30;;;28.65;;
59571;SDS011;59406;45.602;11.904;2023-02-01T13:57:05;44.60;;;28.10;;
59571;SDS011;59406;45.602;11.904;2023-02-01T14:05:11;60.38;;;35.17;;
59571;SDS011;59406;45.602;11.904;2023-02-01T14:26:49;46.85;;;27.58;;
59571;SDS011;59406;45.602;11.904;2023-02-01T14:32:00;49.80;;;29.70;;
59571;SDS011;59406;45.602;11.904;2023-02-01T14:34:57;51.88;;;31.80;;
59571;SDS011;59406;45.602;11.904;2023-02-01T14:42:50;53.72;;;32.15;;
59571;SDS011;59406;45.602;11.904;2023-02-01T15:01:23;45.23;;;25.77;;
59571;SDS011;59406;45.602;11.904;2023-02-01T15:06:47;57.00;;;31.52;;
59571;SDS011;59406;45.602;11.904;2023-02-01T15:14:31;48.10;;;26.90;;
59571;SDS011;59406;45.602;11.904;2023-02-01T15:16:59;52.50;;;29.90;;
59571;SDS011;59406;45.602;11.904;2023-02-01T15:19:26;48.63;;;27.20;;
59571;SDS011;59406;45.602;11.904;2023-02-01T15:21:53;74.90;;;35.10;;
59571;SDS011;59406;45.602;11.904;2023-02-01T15:24:21;59.58;;;30.45;;
59571;SDS011;59406;45.602;11.904;2023-02-01T15:26:49;63.90;;;33.63;;
59571;SDS011;59406;45.602;11.904;2023-02-01T15:29:16;48.72;;;26.95;;
59571;SDS011;59406;45.602;11.904;2023-02-01T15:31:44;55.05;;;28.25;;
59571;SDS011;59406;45.602;11.904;2023-02-01T15:34:17;52.08;;;28.88;;
59571;SDS011;59406;45.602;11.904;2023-02-01T15:36:45;61.63;;;32.10;;
59571;SDS011;59406;45.602;11.904;2023-02-01T15:39:12;64.53;;;34.63;;
59571;SDS011;59406;45.602;11.904;2023-02-01T15:41:58;58.22;;;31.83;;
59571;SDS011;59406;45.602;11.904;2023-02-01T15:44:34;54.38;;;29.10;;
59571;SDS011;59406;45.602;11.904;2023-02-01T15:47:18;48.38;;;26.38;;
59571;SDS011;59406;45.602;11.904;2023-02-01T15:49:56;41.30;;;22.90;;
59571;SDS011;59406;45.602;11.904;2023-02-01T15:52:30;54.37;;;26.77;;
59571;SDS011;59406;45.602;11.904;2023-02-01T15:55:02;48.88;;;24.45;;
59571;SDS011;59406;45.602;11.904;2023-02-01T15:57:42;49.33;;;25.92;;
59571;SDS011;59406;45.602;11.904;2023-02-01T16:00:21;50.85;;;27.13;;
59571;SDS011;59406;45.602;11.904;2023-02-01T16:03:05;43.63;;;21.48;;
59571;SDS011;59406;45.602;11.904;2023-02-01T16:05:53;43.00;;;21.43;;
59571;SDS011;59406;45.602;11.904;2023-02-01T16:08:25;43.22;;;22.73;;
59571;SDS011;59406;45.602;11.904;2023-02-01T16:10:53;43.83;;;22.90;;
59571;SDS011;59406;45.602;11.904;2023-02-01T16:13:40;37.88;;;19.25;;
59571;SDS011;59406;45.602;11.904;2023-02-01T16:16:07;38.50;;;20.10;;
59571;SDS011;59406;45.602;11.904;2023-02-01T16:18:41;45.97;;;23.73;;
59571;SDS011;59406;45.602;11.904;2023-02-01T16:21:08;54.58;;;25.65;;
59571;SDS011;59406;45.602;11.904;2023-02-01T16:23:34;61.88;;;30.83;;
59571;SDS011;59406;45.602;11.904;2023-02-01T16:26:01;59.97;;;29.48;;
59571;SDS011;59406;45.602;11.904;2023-02-01T16:28:27;74.30;;;36.22;;
59571;SDS011;59406;45.602;11.904;2023-02-01T16:30:53;51.53;;;26.37;;
59571;SDS011;59406;45.602;11.904;2023-02-01T16:33:19;53.05;;;25.40;;
59571;SDS011;59406;45.602;11.904;2023-02-01T16:35:49;60.05;;;27.48;;
59571;SDS011;59406;45.602;11.904;2023-02-01T16:38:17;51.15;;;26.98;;
59571;SDS011;59406;45.602;11.904;2023-02-01T16:40:46;48.67;;;22.53;;
59571;SDS011;59406;45.602;11.904;2023-02-01T16:43:14;47.65;;;22.33;;
59571;SDS011;59406;45.602;11.904;2023-02-01T16:45:41;54.90;;;26.42;;
59571;SDS011;59406;45.602;11.904;2023-02-01T16:48:10;45.80;;;21.63;;
59571;SDS011;59406;45.602;11.904;2023-02-01T16:50:45;50.47;;;23.42;;
59571;SDS011;59406;45.602;11.904;2023-02-01T16:53:13;44.10;;;21.30;;
59571;SDS011;59406;45.602;11.904;2023-02-01T16:55:41;45.55;;;21.83;;
59571;SDS011;59406;45.602;11.904;2023-02-01T16:58:08;67.05;;;29.60;;
59571;SDS011;59406;45.602;11.904;2023-02-01T17:00:35;73.13;;;33.20;;